BIR weather

Biratnagar Airport
Biratnagar, Kosi, Nepal

Public forecast

Using degrees Celsius for public forecast. Weather courtesy of forecast.io.

METAR (pilot weather report)

Closest report is Bagdogra Airport, 58.4 nm (108.2 km) ENE. Retrieved 2019/07/16 15:30 UTC (5 minutes ago):

VEBD 161530Z 00000KT 6000 SCT030 SCT100 27/24 Q1003 NOSIG

TAF (pilot weather forecast)

Closest forecast is Bagdogra Airport, 58.4 nm (108.2 km) ENE. Retrieved 2019/07/16 12:30 UTC (3 hours ago):

TAF VEBD 160930Z 1612/1624 09005KT 5000 RABR SCT018 SCT025 BKN 090 TEMPO 1615/1618 2000 TSRA SCT010 SCT018 FEW030CB BKN080